sensor_id;sensor_type;location;lat;lon;timestamp;pressure;altitude;pressure_sealevel;temperature;humidity
62895;BME280;49204;44.916;37.998;2023-02-12T00:01:26;102363.06;;;-5.36;62.51
62895;BME280;49204;44.916;37.998;2023-02-12T00:03:55;102366.09;;;-5.35;62.44
62895;BME280;49204;44.916;37.998;2023-02-12T00:06:24;102362.41;;;-5.32;62.47
62895;BME280;49204;44.916;37.998;2023-02-12T00:08:54;102352.55;;;-5.33;62.46
62895;BME280;49204;44.916;37.998;2023-02-12T00:11:26;102355.83;;;-5.35;62.57
62895;BME280;49204;44.916;37.998;2023-02-12T00:13:55;102358.48;;;-5.34;62.59
62895;BME280;49204;44.916;37.998;2023-02-12T00:16:26;102345.89;;;-5.29;62.55
62895;BME280;49204;44.916;37.998;2023-02-12T00:18:56;102346.20;;;-5.23;62.59
62895;BME280;49204;44.916;37.998;2023-02-12T00:21:26;102345.71;;;-5.16;62.49
62895;BME280;49204;44.916;37.998;2023-02-12T00:23:55;102339.17;;;-5.09;62.47
62895;BME280;49204;44.916;37.998;2023-02-12T00:26:24;102332.05;;;-5.07;62.61
62895;BME280;49204;44.916;37.998;2023-02-12T00:28:53;102323.93;;;-5.06;62.69
62895;BME280;49204;44.916;37.998;2023-02-12T00:31:25;102326.09;;;-5.06;62.74
62895;BME280;49204;44.916;37.998;2023-02-12T00:33:57;102323.06;;;-5.07;62.85
62895;BME280;49204;44.916;37.998;2023-02-12T00:36:29;102308.77;;;-5.10;63.30
62895;BME280;49204;44.916;37.998;2023-02-12T00:38:59;102303.92;;;-5.04;63.01
62895;BME280;49204;44.916;37.998;2023-02-12T00:41:28;102303.92;;;-5.04;63.01
62895;BME280;49204;44.916;37.998;2023-02-12T00:43:57;102305.53;;;-4.97;62.95
62895;BME280;49204;44.916;37.998;2023-02-12T00:46:26;102301.18;;;-4.90;62.88
62895;BME280;49204;44.916;37.998;2023-02-12T00:48:55;102294.25;;;-4.83;62.82
62895;BME280;49204;44.916;37.998;2023-02-12T00:51:25;102295.08;;;-4.74;62.82
62895;BME280;49204;44.916;37.998;2023-02-12T00:53:53;102294.98;;;-4.68;62.78
62895;BME280;49204;44.916;37.998;2023-02-12T00:56:22;102292.23;;;-4.62;62.71
62895;BME280;49204;44.916;37.998;2023-02-12T00:58:51;102288.59;;;-4.58;62.70
62895;BME280;49204;44.916;37.998;2023-02-12T01:01:19;102288.33;;;-4.54;62.66
62895;BME280;49204;44.916;37.998;2023-02-12T01:03:48;102281.39;;;-4.47;62.61
62895;BME280;49204;44.916;37.998;2023-02-12T01:06:18;102284.73;;;-4.40;62.57
62895;BME280;49204;44.916;37.998;2023-02-12T01:08:49;102281.97;;;-4.35;62.44
62895;BME280;49204;44.916;37.998;2023-02-12T01:11:18;102278.50;;;-4.35;62.53
62895;BME280;49204;44.916;37.998;2023-02-12T01:13:48;102269.30;;;-4.40;62.75
62895;BME280;49204;44.916;37.998;2023-02-12T01:16:20;102264.27;;;-4.47;62.95
62895;BME280;49204;44.916;37.998;2023-02-12T01:18:50;102262.52;;;-4.48;63.01
62895;BME280;49204;44.916;37.998;2023-02-12T01:21:27;102253.72;;;-4.43;62.73
62895;BME280;49204;44.916;37.998;2023-02-12T01:23:51;102249.42;;;-4.34;63.18
62895;BME280;49204;44.916;37.998;2023-02-12T01:26:21;102249.42;;;-4.34;63.18
62895;BME280;49204;44.916;37.998;2023-02-12T01:28:52;102252.48;;;-4.23;62.89
62895;BME280;49204;44.916;37.998;2023-02-12T01:31:27;102252.38;;;-4.17;62.80
62895;BME280;49204;44.916;37.998;2023-02-12T01:33:57;102254.38;;;-4.10;62.84
62895;BME280;49204;44.916;37.998;2023-02-12T01:36:28;102251.27;;;-4.02;62.81
62895;BME280;49204;44.916;37.998;2023-02-12T01:38:59;102244.13;;;-4.00;62.85
62895;BME280;49204;44.916;37.998;2023-02-12T01:41:38;102234.77;;;-3.98;62.98
62895;BME280;49204;44.916;37.998;2023-02-12T01:46:48;102241.95;;;-3.91;62.90
62895;BME280;49204;44.916;37.998;2023-02-12T01:49:21;102246.08;;;-3.84;62.99
62895;BME280;49204;44.916;37.998;2023-02-12T01:51:53;102239.64;;;-3.84;63.26
62895;BME280;49204;44.916;37.998;2023-02-12T01:54:22;102235.92;;;-3.81;63.24
62895;BME280;49204;44.916;37.998;2023-02-12T01:56:52;102232.81;;;-3.74;63.25
62895;BME280;49204;44.916;37.998;2023-02-12T01:59:22;102232.81;;;-3.74;63.25
62895;BME280;49204;44.916;37.998;2023-02-12T02:01:51;102227.66;;;-3.74;63.32
62895;BME280;49204;44.916;37.998;2023-02-12T02:04:26;102230.89;;;-3.78;63.53
62895;BME280;49204;44.916;37.998;2023-02-12T02:07:00;102229.15;;;-3.79;63.52
62895;BME280;49204;44.916;37.998;2023-02-12T02:09:31;102216.89;;;-3.85;63.63
62895;BME280;49204;44.916;37.998;2023-02-12T02:12:01;102214.39;;;-3.88;63.71
62895;BME280;49204;44.916;37.998;2023-02-12T02:14:51;102214.39;;;-3.83;64.00
62895;BME280;49204;44.916;37.998;2023-02-12T02:20:29;102200.42;;;-3.79;63.76
62895;BME280;49204;44.916;37.998;2023-02-12T02:31:49;102209.84;;;-3.39;64.21
62895;BME280;49204;44.916;37.998;2023-02-12T02:33:58;102207.16;;;-3.31;64.26
62895;BME280;49204;44.916;37.998;2023-02-12T02:36:40;102212.59;;;-3.24;64.42
62895;BME280;49204;44.916;37.998;2023-02-12T02:39:16;102211.47;;;-3.20;65.24
62895;BME280;49204;44.916;37.998;2023-02-12T02:44:43;102210.98;;;-3.11;64.69
62895;BME280;49204;44.916;37.998;2023-02-12T02:47:09;102204.60;;;-3.09;64.51
62895;BME280;49204;44.916;37.998;2023-02-12T02:49:44;102197.45;;;-3.05;64.36
62895;BME280;49204;44.916;37.998;2023-02-12T02:52:19;102204.25;;;-3.07;64.47
62895;BME280;49204;44.916;37.998;2023-02-12T02:54:53;102183.34;;;-3.25;65.21
62895;BME280;49204;44.916;37.998;2023-02-12T02:57:33;102187.70;;;-3.24;65.48
62895;BME280;49204;44.916;37.998;2023-02-12T02:59:59;102185.57;;;-3.23;65.32
62895;BME280;49204;44.916;37.998;2023-02-12T03:02:32;102179.75;;;-3.19;65.24
62895;BME280;49204;44.916;37.998;2023-02-12T03:05:09;102176.48;;;-3.15;65.04
62895;BME280;49204;44.916;37.998;2023-02-12T03:07:51;102174.13;;;-3.08;64.94
62895;BME280;49204;44.916;37.998;2023-02-12T03:10:26;102166.53;;;-3.05;65.09
62895;BME280;49204;44.916;37.998;2023-02-12T03:18:17;102152.58;;;-3.11;66.25
62895;BME280;49204;44.916;37.998;2023-02-12T03:20:48;102154.94;;;-3.05;66.42
62895;BME280;49204;44.916;37.998;2023-02-12T03:23:20;102153.16;;;-3.06;66.19
62895;BME280;49204;44.916;37.998;2023-02-12T03:26:03;102158.65;;;-2.99;66.10
62895;BME280;49204;44.916;37.998;2023-02-12T03:28:31;102148.27;;;-3.00;65.93
62895;BME280;49204;44.916;37.998;2023-02-12T03:39:16;102164.54;;;-3.01;65.66
62895;BME280;49204;44.916;37.998;2023-02-12T03:41:49;102152.78;;;-3.06;66.22
62895;BME280;49204;44.916;37.998;2023-02-12T03:44:26;102148.78;;;-3.09;66.42
62895;BME280;49204;44.916;37.998;2023-02-12T03:46:58;102147.91;;;-3.09;66.44
62895;BME280;49204;44.916;37.998;2023-02-12T03:49:32;102152.58;;;-3.11;67.09
62895;BME280;49204;44.916;37.998;2023-02-12T03:52:02;102144.50;;;-3.08;67.09
62895;BME280;49204;44.916;37.998;2023-02-12T03:54:32;102138.64;;;-3.04;67.90
62895;BME280;49204;44.916;37.998;2023-02-12T03:57:13;102136.03;;;-2.95;67.97
62895;BME280;49204;44.916;37.998;2023-02-12T03:59:43;102132.03;;;-2.86;67.72
62895;BME280;49204;44.916;37.998;2023-02-12T04:02:14;102134.52;;;-2.78;67.43
62895;BME280;49204;44.916;37.998;2023-02-12T04:04:44;102134.80;;;-2.70;67.30
62895;BME280;49204;44.916;37.998;2023-02-12T04:07:14;102128.22;;;-2.62;67.18
62895;BME280;49204;44.916;37.998;2023-02-12T04:09:43;102122.83;;;-2.57;67.14
62895;BME280;49204;44.916;37.998;2023-02-12T04:17:49;102113.05;;;-2.42;66.86
62895;BME280;49204;44.916;37.998;2023-02-12T04:26:33;102119.03;;;-2.31;66.55
62895;BME280;49204;44.916;37.998;2023-02-12T04:29:27;102112.78;;;-2.25;66.49
62895;BME280;49204;44.916;37.998;2023-02-12T04:31:59;102106.94;;;-2.21;66.48
62895;BME280;49204;44.916;37.998;2023-02-12T04:34:31;102111.81;;;-2.16;66.63
62895;BME280;49204;44.916;37.998;2023-02-12T04:37:10;102104.02;;;-2.18;67.26
62895;BME280;49204;44.916;37.998;2023-02-12T04:39:39;102105.73;;;-2.18;67.54
62895;BME280;49204;44.916;37.998;2023-02-12T04:42:08;102103.15;;;-2.18;67.45
62895;BME280;49204;44.916;37.998;2023-02-12T04:44:40;102107.89;;;-2.18;67.45
62895;BME280;49204;44.916;37.998;2023-02-12T04:47:16;102115.00;;;-2.12;67.44
62895;BME280;49204;44.916;37.998;2023-02-12T04:49:44;102119.88;;;-2.07;67.28
62895;BME280;49204;44.916;37.998;2023-02-12T04:52:13;102121.41;;;-2.01;67.15
62895;BME280;49204;44.916;37.998;2023-02-12T04:54:42;102122.90;;;-1.95;67.16
62895;BME280;49204;44.916;37.998;2023-02-12T04:57:11;102123.95;;;-1.89;67.11
62895;BME280;49204;44.916;37.998;2023-02-12T04:59:39;102128.50;;;-1.82;67.18
62895;BME280;49204;44.916;37.998;2023-02-12T05:02:08;102127.83;;;-1.77;67.21
62895;BME280;49204;44.916;37.998;2023-02-12T05:04:36;102121.93;;;-1.72;67.79
62895;BME280;49204;44.916;37.998;2023-02-12T05:07:05;102123.36;;;-1.68;67.99
62895;BME280;49204;44.916;37.998;2023-02-12T05:09:34;102125.19;;;-1.65;68.44
62895;BME280;49204;44.916;37.998;2023-02-12T05:12:03;102129.25;;;-1.59;68.93
62895;BME280;49204;44.916;37.998;2023-02-12T05:14:31;102129.98;;;-1.50;68.67
62895;BME280;49204;44.916;37.998;2023-02-12T05:17:00;102124.63;;;-1.42;68.38
62895;BME280;49204;44.916;37.998;2023-02-12T05:19:29;102121.47;;;-1.33;68.24
62895;BME280;49204;44.916;37.998;2023-02-12T05:21:57;102121.71;;;-1.26;68.79
62895;BME280;49204;44.916;37.998;2023-02-12T05:24:26;102125.44;;;-1.18;69.18
62895;BME280;49204;44.916;37.998;2023-02-12T05:26:55;102118.34;;;-1.10;69.10
62895;BME280;49204;44.916;37.998;2023-02-12T05:29:23;102116.41;;;-1.03;69.33
62895;BME280;49204;44.916;37.998;2023-02-12T05:31:52;102123.86;;;-0.98;69.33
62895;BME280;49204;44.916;37.998;2023-02-12T05:34:20;102124.52;;;-0.91;70.05
62895;BME280;49204;44.916;37.998;2023-02-12T05:36:49;102119.23;;;-0.81;69.98
62895;BME280;49204;44.916;37.998;2023-02-12T05:39:18;102122.03;;;-0.73;69.92
62895;BME280;49204;44.916;37.998;2023-02-12T05:41:46;102118.75;;;-0.68;69.70
62895;BME280;49204;44.916;37.998;2023-02-12T05:44:15;102112.45;;;-0.62;69.56
62895;BME280;49204;44.916;37.998;2023-02-12T05:46:43;102119.13;;;-0.54;69.49
62895;BME280;49204;44.916;37.998;2023-02-12T05:49:12;102103.38;;;-0.47;69.42
62895;BME280;49204;44.916;37.998;2023-02-12T05:51:41;102108.34;;;-0.39;69.31
62895;BME280;49204;44.916;37.998;2023-02-12T05:54:10;102109.44;;;-0.31;69.12
62895;BME280;49204;44.916;37.998;2023-02-12T05:56:43;102106.23;;;-0.22;68.92
62895;BME280;49204;44.916;37.998;2023-02-12T05:59:21;102103.05;;;-0.12;68.78
62895;BME280;49204;44.916;37.998;2023-02-12T06:01:46;102101.23;;;0.02;68.64
62895;BME280;49204;44.916;37.998;2023-02-12T06:04:20;102098.06;;;0.12;68.46
62895;BME280;49204;44.916;37.998;2023-02-12T06:06:53;102103.91;;;0.22;68.32
62895;BME280;49204;44.916;37.998;2023-02-12T06:09:23;102104.13;;;0.30;68.18
62895;BME280;49204;44.916;37.998;2023-02-12T06:11:52;102104.32;;;0.37;68.00
62895;BME280;49204;44.916;37.998;2023-02-12T06:14:20;102101.09;;;0.46;67.91
62895;BME280;49204;44.916;37.998;2023-02-12T06:16:50;102096.14;;;0.57;67.83
62895;BME280;49204;44.916;37.998;2023-02-12T06:19:19;102100.33;;;0.69;67.79
62895;BME280;49204;44.916;37.998;2023-02-12T06:21:48;102095.05;;;0.84;67.72
62895;BME280;49204;44.916;37.998;2023-02-12T06:24:17;102106.62;;;1.00;67.63
62895;BME280;49204;44.916;37.998;2023-02-12T06:26:48;102094.44;;;1.14;67.45
62895;BME280;49204;44.916;37.998;2023-02-12T06:29:18;102095.61;;;1.30;67.31
62895;BME280;49204;44.916;37.998;2023-02-12T06:31:47;102096.42;;;1.48;67.16
62895;BME280;49204;44.916;37.998;2023-02-12T06:34:16;102093.76;;;1.67;66.93
62895;BME280;49204;44.916;37.998;2023-02-12T06:36:46;102089.34;;;1.85;66.47
62895;BME280;49204;44.916;37.998;2023-02-12T06:39:15;102078.39;;;2.02;66.14
62895;BME280;49204;44.916;37.998;2023-02-12T06:41:44;102081.67;;;2.17;65.64
62895;BME280;49204;44.916;37.998;2023-02-12T06:44:13;102080.59;;;2.30;65.26
62895;BME280;49204;44.916;37.998;2023-02-12T06:46:41;102073.06;;;2.46;64.99
62895;BME280;49204;44.916;37.998;2023-02-12T06:49:11;102070.34;;;2.66;64.77
62895;BME280;49204;44.916;37.998;2023-02-12T06:51:41;102066.76;;;2.88;64.06
62895;BME280;49204;44.916;37.998;2023-02-12T06:54:14;102057.03;;;3.07;62.85
62895;BME280;49204;44.916;37.998;2023-02-12T06:56:43;102064.23;;;3.27;62.38
62895;BME280;49204;44.916;37.998;2023-02-12T06:59:13;102063.97;;;3.41;61.42
62895;BME280;49204;44.916;37.998;2023-02-12T07:01:42;102064.46;;;3.48;61.15
62895;BME280;49204;44.916;37.998;2023-02-12T07:04:11;102066.29;;;3.54;60.60
62895;BME280;49204;44.916;37.998;2023-02-12T07:06:40;102063.28;;;3.59;60.42
62895;BME280;49204;44.916;37.998;2023-02-12T07:09:08;102058.53;;;3.60;59.72
62895;BME280;49204;44.916;37.998;2023-02-12T07:11:37;102052.05;;;3.65;59.64
62895;BME280;49204;44.916;37.998;2023-02-12T07:14:06;102042.14;;;3.69;59.87
62895;BME280;49204;44.916;37.998;2023-02-12T07:16:35;102043.89;;;3.72;58.91
62895;BME280;49204;44.916;37.998;2023-02-12T07:19:03;102037.88;;;3.79;58.91
62895;BME280;49204;44.916;37.998;2023-02-12T07:21:32;102034.05;;;3.86;58.98
62895;BME280;49204;44.916;37.998;2023-02-12T07:24:01;102017.23;;;3.99;58.64
62895;BME280;49204;44.916;37.998;2023-02-12T07:26:30;102016.92;;;4.13;58.17
62895;BME280;49204;44.916;37.998;2023-02-12T07:28:58;102009.23;;;4.32;56.87
62895;BME280;49204;44.916;37.998;2023-02-12T07:31:28;101992.94;;;4.70;56.61
62895;BME280;49204;44.916;37.998;2023-02-12T07:33:58;102008.34;;;5.04;56.02
62895;BME280;49204;44.916;37.998;2023-02-12T07:36:32;101987.59;;;5.52;54.88
62895;BME280;49204;44.916;37.998;2023-02-12T07:39:01;102001.16;;;6.08;53.05
62895;BME280;49204;44.916;37.998;2023-02-12T07:41:32;101994.96;;;6.77;52.80
62895;BME280;49204;44.916;37.998;2023-02-12T07:44:06;101987.67;;;7.44;50.58
62895;BME280;49204;44.916;37.998;2023-02-12T07:46:39;102003.23;;;8.25;50.27
62895;BME280;49204;44.916;37.998;2023-02-12T07:49:16;102000.58;;;8.72;49.43
62895;BME280;49204;44.916;37.998;2023-02-12T07:51:40;102002.22;;;8.84;50.30
62895;BME280;49204;44.916;37.998;2023-02-12T07:54:10;102002.50;;;8.96;49.60
62895;BME280;49204;44.916;37.998;2023-02-12T07:56:40;102006.65;;;9.15;49.44
62895;BME280;49204;44.916;37.998;2023-02-12T07:59:14;102007.53;;;9.46;48.36
62895;BME280;49204;44.916;37.998;2023-02-12T08:01:44;101992.66;;;9.74;46.75
62895;BME280;49204;44.916;37.998;2023-02-12T08:04:14;102001.02;;;9.11;44.41
62895;BME280;49204;44.916;37.998;2023-02-12T08:06:45;101994.53;;;8.67;45.13
62895;BME280;49204;44.916;37.998;2023-02-12T08:09:17;101989.08;;;8.41;46.17
62895;BME280;49204;44.916;37.998;2023-02-12T08:11:46;102001.08;;;8.20;44.73
62895;BME280;49204;44.916;37.998;2023-02-12T08:14:17;101994.28;;;7.97;44.56
62895;BME280;49204;44.916;37.998;2023-02-12T08:16:47;101996.22;;;7.69;44.57
62895;BME280;49204;44.916;37.998;2023-02-12T08:19:17;101980.66;;;7.49;45.26
62895;BME280;49204;44.916;37.998;2023-02-12T08:21:48;102019.30;;;7.07;46.01
62895;BME280;49204;44.916;37.998;2023-02-12T08:24:15;102014.17;;;6.67;47.44
62895;BME280;49204;44.916;37.998;2023-02-12T08:26:44;101999.41;;;6.21;48.82
62895;BME280;49204;44.916;37.998;2023-02-12T08:29:16;102015.08;;;5.89;49.94
62895;BME280;49204;44.916;37.998;2023-02-12T08:31:47;101995.45;;;5.61;50.95
62895;BME280;49204;44.916;37.998;2023-02-12T08:34:24;102025.86;;;5.37;51.76
62895;BME280;49204;44.916;37.998;2023-02-12T08:36:54;102018.39;;;5.21;52.46
62895;BME280;49204;44.916;37.998;2023-02-12T08:39:24;102008.81;;;5.17;52.88
62895;BME280;49204;44.916;37.998;2023-02-12T08:41:57;102014.48;;;5.17;53.32
62895;BME280;49204;44.916;37.998;2023-02-12T08:44:26;102004.45;;;5.16;53.55
62895;BME280;49204;44.916;37.998;2023-02-12T08:46:55;102002.30;;;5.19;53.83
62895;BME280;49204;44.916;37.998;2023-02-12T08:49:26;102013.61;;;5.19;53.88
62895;BME280;49204;44.916;37.998;2023-02-12T08:51:57;102003.64;;;5.30;53.95
62895;BME280;49204;44.916;37.998;2023-02-12T08:54:29;102003.63;;;5.28;53.95
62895;BME280;49204;44.916;37.998;2023-02-12T08:57:01;101997.98;;;5.30;53.99
62895;BME280;49204;44.916;37.998;2023-02-12T08:59:30;101980.55;;;5.29;54.07
62895;BME280;49204;44.916;37.998;2023-02-12T09:01:58;101984.48;;;5.31;54.02
62895;BME280;49204;44.916;37.998;2023-02-12T09:04:28;101967.97;;;5.35;53.89
62895;BME280;49204;44.916;37.998;2023-02-12T09:06:57;101962.75;;;5.41;53.11
62895;BME280;49204;44.916;37.998;2023-02-12T09:09:26;101962.31;;;5.49;52.51
62895;BME280;49204;44.916;37.998;2023-02-12T09:11:55;101957.98;;;5.50;51.52
62895;BME280;49204;44.916;37.998;2023-02-12T09:14:23;101958.40;;;5.57;51.60
62895;BME280;49204;44.916;37.998;2023-02-12T09:16:53;101944.03;;;5.66;51.43
62895;BME280;49204;44.916;37.998;2023-02-12T09:19:24;101954.06;;;5.71;51.29
62895;BME280;49204;44.916;37.998;2023-02-12T09:21:54;101947.11;;;5.78;51.09
62895;BME280;49204;44.916;37.998;2023-02-12T09:24:24;101937.97;;;5.81;50.84
62895;BME280;49204;44.916;37.998;2023-02-12T09:26:53;101943.19;;;5.78;50.23
62895;BME280;49204;44.916;37.998;2023-02-12T09:29:22;101937.52;;;5.78;50.50
62895;BME280;49204;44.916;37.998;2023-02-12T09:31:51;101932.73;;;5.76;50.01
62895;BME280;49204;44.916;37.998;2023-02-12T09:34:20;101928.81;;;5.76;49.79
62895;BME280;49204;44.916;37.998;2023-02-12T09:36:49;101920.52;;;5.75;48.94
62895;BME280;49204;44.916;37.998;2023-02-12T09:39:18;101929.69;;;5.72;49.35
62895;BME280;49204;44.916;37.998;2023-02-12T09:44:53;101915.74;;;5.67;48.28
62895;BME280;49204;44.916;37.998;2023-02-12T09:47:23;101928.81;;;5.67;48.23
62895;BME280;49204;44.916;37.998;2023-02-12T09:50:17;101920.53;;;5.80;48.59
62895;BME280;49204;44.916;37.998;2023-02-12T09:52:43;101930.59;;;5.96;48.41
62895;BME280;49204;44.916;37.998;2023-02-12T09:55:14;101922.72;;;6.13;48.78
62895;BME280;49204;44.916;37.998;2023-02-12T09:57:44;101917.47;;;6.21;48.53
62895;BME280;49204;44.916;37.998;2023-02-12T10:00:23;101913.52;;;6.25;48.55
62895;BME280;49204;44.916;37.998;2023-02-12T10:02:52;101921.37;;;6.28;48.69
62895;BME280;49204;44.916;37.998;2023-02-12T10:05:30;101914.41;;;6.26;49.09
62895;BME280;49204;44.916;37.998;2023-02-12T10:13:30;101900.86;;;6.34;49.33
62895;BME280;49204;44.916;37.998;2023-02-12T10:21:51;101885.47;;;6.66;47.96
62895;BME280;49204;44.916;37.998;2023-02-12T10:27:19;101879.07;;;6.29;48.26
62895;BME280;49204;44.916;37.998;2023-02-12T10:29:48;101883.47;;;6.24;48.74
62895;BME280;49204;44.916;37.998;2023-02-12T10:32:30;101882.58;;;6.26;48.73
62895;BME280;49204;44.916;37.998;2023-02-12T10:34:56;101881.69;;;6.29;49.04
62895;BME280;49204;44.916;37.998;2023-02-12T10:37:39;101870.36;;;6.28;48.85
62895;BME280;49204;44.916;37.998;2023-02-12T10:40:23;101870.39;;;6.21;48.32
62895;BME280;49204;44.916;37.998;2023-02-12T10:42:54;101885.66;;;6.10;48.48
62895;BME280;49204;44.916;37.998;2023-02-12T10:45:31;101892.64;;;6.11;48.82
62895;BME280;49204;44.916;37.998;2023-02-12T10:48:08;101884.37;;;6.06;48.92
62895;BME280;49204;44.916;37.998;2023-02-12T10:50:54;101894.86;;;5.98;48.88
62895;BME280;49204;44.916;37.998;2023-02-12T10:53:28;101886.97;;;5.92;49.17
62895;BME280;49204;44.916;37.998;2023-02-12T10:56:15;101890.02;;;5.90;49.48
62895;BME280;49204;44.916;37.998;2023-02-12T10:58:56;101862.12;;;5.92;48.96
62895;BME280;49204;44.916;37.998;2023-02-12T11:01:38;101834.68;;;5.92;48.72
62895;BME280;49204;44.916;37.998;2023-02-12T11:07:10;101859.93;;;6.24;48.43
62895;BME280;49204;44.916;37.998;2023-02-12T11:09:40;101859.01;;;6.34;47.90
62895;BME280;49204;44.916;37.998;2023-02-12T11:12:33;101844.98;;;6.50;47.55
62895;BME280;49204;44.916;37.998;2023-02-12T11:15:18;101858.89;;;6.62;47.68
62895;BME280;49204;44.916;37.998;2023-02-12T11:17:59;101858.84;;;6.74;47.49
62895;BME280;49204;44.916;37.998;2023-02-12T11:20:32;101850.48;;;6.85;47.48
62895;BME280;49204;44.916;37.998;2023-02-12T11:23:02;101833.52;;;6.81;46.37
62895;BME280;49204;44.916;37.998;2023-02-12T11:25:35;101840.47;;;6.83;46.52
62895;BME280;49204;44.916;37.998;2023-02-12T11:28:16;101834.27;;;6.95;46.66
62895;BME280;49204;44.916;37.998;2023-02-12T11:33:33;101856.05;;;7.05;47.21
62895;BME280;49204;44.916;37.998;2023-02-12T11:38:38;101854.41;;;6.85;47.44
62895;BME280;49204;44.916;37.998;2023-02-12T11:41:22;101850.18;;;6.63;46.50
62895;BME280;49204;44.916;37.998;2023-02-12T11:43:45;101847.64;;;6.44;46.42
62895;BME280;49204;44.916;37.998;2023-02-12T11:46:22;101822.42;;;6.25;46.36
62895;BME280;49204;44.916;37.998;2023-02-12T11:48:52;101805.45;;;6.22;46.51
62895;BME280;49204;44.916;37.998;2023-02-12T11:51:24;101832.05;;;6.16;46.76
62895;BME280;49204;44.916;37.998;2023-02-12T11:53:58;101834.22;;;6.15;46.71
62895;BME280;49204;44.916;37.998;2023-02-12T11:58:46;101805.87;;;6.19;46.60
62895;BME280;49204;44.916;37.998;2023-02-12T12:01:29;101822.91;;;6.18;47.04
62895;BME280;49204;44.916;37.998;2023-02-12T12:04:04;101798.92;;;6.17;46.90
62895;BME280;49204;44.916;37.998;2023-02-12T12:06:35;101816.36;;;6.16;47.34
62895;BME280;49204;44.916;37.998;2023-02-12T12:09:16;101814.19;;;6.10;47.19
62895;BME280;49204;44.916;37.998;2023-02-12T12:12:18;101818.59;;;6.03;47.56
62895;BME280;49204;44.916;37.998;2023-02-12T12:14:49;101844.72;;;5.91;47.80
62895;BME280;49204;44.916;37.998;2023-02-12T12:17:44;101826.46;;;5.72;48.14
62895;BME280;49204;44.916;37.998;2023-02-12T12:20:40;101835.62;;;5.63;48.49
62895;BME280;49204;44.916;37.998;2023-02-12T12:25:51;101829.53;;;5.52;48.91
62895;BME280;49204;44.916;37.998;2023-02-12T12:28:35;101833.02;;;5.45;49.08
62895;BME280;49204;44.916;37.998;2023-02-12T12:31:26;101826.05;;;5.36;49.22
62895;BME280;49204;44.916;37.998;2023-02-12T12:34:18;101830.40;;;5.34;49.47
62895;BME280;49204;44.916;37.998;2023-02-12T12:37:04;101820.40;;;5.33;49.84
62895;BME280;49204;44.916;37.998;2023-02-12T12:48:36;101841.72;;;5.22;50.97
62895;BME280;49204;44.916;37.998;2023-02-12T12:51:26;101822.57;;;5.18;51.33
62895;BME280;49204;44.916;37.998;2023-02-12T12:56:37;101817.33;;;5.14;52.37
62895;BME280;49204;44.916;37.998;2023-02-12T13:02:03;101837.78;;;5.16;52.70
62895;BME280;49204;44.916;37.998;2023-02-12T13:04:51;101829.94;;;5.14;52.98
62895;BME280;49204;44.916;37.998;2023-02-12T13:07:24;101828.64;;;5.14;53.17
62895;BME280;49204;44.916;37.998;2023-02-12T13:15:49;101819.06;;;5.18;53.65
62895;BME280;49204;44.916;37.998;2023-02-12T13:21:17;101820.37;;;5.19;53.87
62895;BME280;49204;44.916;37.998;2023-02-12T13:26:54;101820.83;;;5.19;54.33
62895;BME280;49204;44.916;37.998;2023-02-12T13:29:36;101829.50;;;5.16;54.17
62895;BME280;49204;44.916;37.998;2023-02-12T13:32:25;101832.12;;;5.16;54.46
62895;BME280;49204;44.916;37.998;2023-02-12T13:34:54;101831.25;;;5.16;54.46
62895;BME280;49204;44.916;37.998;2023-02-12T13:37:37;101835.62;;;5.17;54.36
62895;BME280;49204;44.916;37.998;2023-02-12T13:40:09;101825.17;;;5.17;54.36
62895;BME280;49204;44.916;37.998;2023-02-12T13:45:51;101830.84;;;5.15;54.51
62895;BME280;49204;44.916;37.998;2023-02-12T13:51:35;101822.54;;;5.11;54.82
62895;BME280;49204;44.916;37.998;2023-02-12T13:54:13;101822.55;;;5.05;55.05
62895;BME280;49204;44.916;37.998;2023-02-12T13:56:44;101813.39;;;5.01;55.28
62895;BME280;49204;44.916;37.998;2023-02-12T14:04:55;101810.34;;;4.82;58.56
62895;BME280;49204;44.916;37.998;2023-02-12T14:07:43;101827.72;;;4.72;58.69
62895;BME280;49204;44.916;37.998;2023-02-12T14:10:34;101821.59;;;4.64;59.55
62895;BME280;49204;44.916;37.998;2023-02-12T14:13:20;101822.01;;;4.54;59.61
62895;BME280;49204;44.916;37.998;2023-02-12T14:15:52;101830.67;;;4.47;59.55
62895;BME280;49204;44.916;37.998;2023-02-12T14:18:37;101827.59;;;4.38;59.37
62895;BME280;49204;44.916;37.998;2023-02-12T14:23:45;101841.43;;;4.23;60.05
62895;BME280;49204;44.916;37.998;2023-02-12T14:26:18;101841.41;;;4.20;59.73
62895;BME280;49204;44.916;37.998;2023-02-12T14:28:59;101842.69;;;4.14;59.67
62895;BME280;49204;44.916;37.998;2023-02-12T14:31:35;101842.23;;;4.10;59.64
62895;BME280;49204;44.916;37.998;2023-02-12T14:36:38;101846.94;;;3.95;59.65
62895;BME280;49204;44.916;37.998;2023-02-12T14:41:53;101850.80;;;3.88;59.85
62895;BME280;49204;44.916;37.998;2023-02-12T14:46:59;101855.47;;;3.74;60.30
62895;BME280;49204;44.916;37.998;2023-02-12T14:49:44;101848.02;;;3.64;60.53
62895;BME280;49204;44.916;37.998;2023-02-12T14:52:18;101851.42;;;3.53;60.90
62895;BME280;49204;44.916;37.998;2023-02-12T14:55:03;101854.37;;;3.44;61.32
62895;BME280;49204;44.916;37.998;2023-02-12T14:57:36;101858.20;;;3.35;62.70
62895;BME280;49204;44.916;37.998;2023-02-12T15:00:22;101853.30;;;3.21;62.95
62895;BME280;49204;44.916;37.998;2023-02-12T15:02:56;101868.42;;;3.12;63.83
62895;BME280;49204;44.916;37.998;2023-02-12T15:05:28;101875.25;;;3.01;63.87
62895;BME280;49204;44.916;37.998;2023-02-12T15:08:44;101882.57;;;2.98;63.54
62895;BME280;49204;44.916;37.998;2023-02-12T15:10:49;101883.41;;;2.94;63.49
62895;BME280;49204;44.916;37.998;2023-02-12T15:21:15;101881.73;;;2.99;63.81
62895;BME280;49204;44.916;37.998;2023-02-12T15:23:43;101889.53;;;2.99;63.71